createdAt,value
2022-12-12T00:01:04.315Z,17.83
2022-12-12T00:03:32.614Z,20.95
2022-12-12T00:06:03.306Z,20.88
2022-12-12T00:08:31.206Z,18.95
2022-12-12T00:11:00.436Z,18.33
2022-12-12T00:13:28.316Z,22.02
2022-12-12T00:15:56.148Z,17.83
2022-12-12T00:18:24.031Z,18.73
2022-12-12T00:20:53.423Z,20.27
2022-12-12T00:23:21.382Z,17.80
2022-12-12T00:25:55.384Z,17.88
2022-12-12T00:28:25.407Z,19.38
2022-12-12T00:30:53.722Z,21.77
2022-12-12T00:33:21.644Z,21.00
2022-12-12T00:35:51.337Z,23.38
2022-12-12T00:38:19.248Z,21.92
2022-12-12T00:40:47.191Z,21.08
2022-12-12T00:43:15.096Z,19.95
2022-12-12T00:45:44.282Z,18.55
2022-12-12T00:48:12.114Z,17.33
2022-12-12T00:50:40.313Z,18.88
2022-12-12T00:53:08.184Z,19.17
2022-12-12T00:55:36.375Z,18.75
2022-12-12T00:58:04.266Z,18.48
2022-12-12T01:00:32.524Z,17.75
2022-12-12T01:03:01.736Z,20.92
2022-12-12T01:05:29.983Z,16.17
2022-12-12T01:07:58.815Z,20.42
2022-12-12T01:10:26.790Z,19.45
2022-12-12T01:12:54.601Z,18.45
2022-12-12T01:15:22.718Z,17.13
2022-12-12T01:17:50.532Z,19.30
2022-12-12T01:20:22.706Z,22.75
2022-12-12T01:25:19.315Z,16.98
2022-12-12T01:27:47.694Z,20.55
2022-12-12T01:30:18.810Z,20.55
2022-12-12T01:32:46.954Z,19.92
2022-12-12T01:35:15.217Z,21.38
2022-12-12T01:37:44.623Z,18.52
2022-12-12T01:40:18.420Z,20.52
2022-12-12T01:42:46.373Z,17.55
2022-12-12T01:45:50.549Z,20.45
2022-12-12T01:48:19.408Z,20.98
2022-12-12T01:50:47.588Z,23.88
2022-12-12T01:53:19.338Z,22.38
2022-12-12T01:55:48.883Z,20.00
2022-12-12T01:58:17.225Z,22.75
2022-12-12T02:00:46.034Z,19.15
2022-12-12T02:03:13.955Z,19.58
2022-12-12T02:05:45.273Z,19.65
2022-12-12T02:08:14.400Z,20.25
2022-12-12T02:10:45.166Z,20.85
2022-12-12T02:13:21.627Z,18.35
2022-12-12T02:15:57.202Z,19.90
2022-12-12T02:18:31.806Z,20.42
2022-12-12T02:21:11.968Z,19.55
2022-12-12T02:24:10.428Z,19.48
2022-12-12T02:26:58.449Z,15.93
2022-12-12T02:30:05.113Z,17.50
2022-12-12T02:32:47.360Z,18.48
2022-12-12T02:35:22.174Z,18.98
2022-12-12T02:37:59.526Z,19.27
2022-12-12T02:40:34.405Z,17.48
2022-12-12T02:43:10.559Z,19.08
2022-12-12T02:45:41.989Z,18.33
2022-12-12T02:48:18.121Z,22.13
2022-12-12T02:50:48.433Z,19.10
2022-12-12T02:53:19.296Z,20.15
2022-12-12T02:55:47.953Z,18.42
2022-12-12T02:58:16.083Z,20.15
2022-12-12T03:00:56.888Z,19.42
2022-12-12T03:03:53.531Z,19.67
2022-12-12T03:07:09.792Z,18.48
2022-12-12T03:09:51.202Z,17.35
2022-12-12T03:12:26.852Z,18.10
2022-12-12T03:15:03.113Z,20.27
2022-12-12T03:17:37.576Z,19.92
2022-12-12T03:20:13.640Z,20.63
2022-12-12T03:22:47.483Z,16.95
2022-12-12T03:25:21.140Z,18.10
2022-12-12T03:27:54.766Z,18.48
2022-12-12T03:30:22.675Z,17.70
2022-12-12T03:32:56.372Z,19.48
2022-12-12T03:35:28.996Z,16.27
2022-12-12T03:38:02.690Z,20.70
2022-12-12T03:40:36.744Z,18.50
2022-12-12T03:43:09.989Z,20.27
2022-12-12T03:45:42.372Z,21.58
2022-12-12T03:48:16.553Z,18.58
2022-12-12T03:50:50.275Z,18.90
2022-12-12T03:53:22.463Z,17.58
2022-12-12T03:58:25.192Z,19.55
2022-12-12T04:00:54.917Z,18.60
2022-12-12T04:03:28.107Z,22.10
2022-12-12T04:06:19.277Z,18.83
2022-12-12T04:09:01.900Z,20.13
2022-12-12T04:11:56.120Z,21.50
2022-12-12T04:14:41.648Z,19.80
2022-12-12T04:17:14.106Z,22.92
2022-12-12T04:20:04.059Z,16.67
2022-12-12T04:23:05.712Z,20.20
2022-12-12T04:26:02.006Z,18.30
2022-12-12T04:28:31.516Z,22.55
2022-12-12T04:31:04.633Z,19.17
2022-12-12T04:33:40.278Z,17.40
2022-12-12T04:36:10.667Z,20.55
2022-12-12T04:38:41.035Z,17.27
2022-12-12T04:41:12.151Z,20.75
2022-12-12T04:43:41.960Z,23.00
2022-12-12T04:46:14.740Z,23.38
2022-12-12T04:48:47.038Z,20.25
2022-12-12T04:51:17.165Z,18.80
2022-12-12T04:53:53.612Z,20.85
2022-12-12T04:56:27.537Z,21.05
2022-12-12T04:58:55.518Z,21.20
2022-12-12T05:01:27.444Z,21.00
2022-12-12T05:03:58.480Z,22.92
2022-12-12T05:06:31.407Z,19.95
2022-12-12T05:09:02.919Z,21.98
2022-12-12T05:11:31.067Z,20.58
2022-12-12T05:13:58.909Z,21.45
2022-12-12T05:16:32.298Z,22.38
2022-12-12T05:19:00.620Z,21.77
2022-12-12T05:21:28.725Z,18.48
2022-12-12T05:23:56.574Z,20.20
2022-12-12T05:26:28.740Z,20.50
2022-12-12T05:31:27.693Z,23.13
2022-12-12T05:33:55.530Z,21.60
2022-12-12T05:36:23.408Z,22.40
2022-12-12T05:38:51.253Z,20.70
2022-12-12T05:41:19.291Z,19.33
2022-12-12T05:43:48.553Z,19.80
2022-12-12T05:46:16.452Z,19.38
2022-12-12T05:48:44.448Z,19.70
2022-12-12T05:51:12.270Z,17.58
2022-12-12T05:53:43.131Z,20.83
2022-12-12T05:56:12.498Z,19.33
2022-12-12T05:58:40.705Z,21.85
2022-12-12T06:01:10.296Z,21.60
2022-12-12T06:03:38.185Z,18.48
2022-12-12T06:06:06.265Z,20.25
2022-12-12T06:08:34.132Z,20.90
2022-12-12T06:11:01.998Z,18.88
2022-12-12T06:13:29.816Z,21.88
2022-12-12T06:15:57.667Z,19.77
2022-12-12T06:18:26.923Z,19.42
2022-12-12T06:21:03.434Z,18.17
2022-12-12T06:23:31.258Z,22.83
2022-12-12T06:25:59.105Z,19.30
2022-12-12T06:28:26.912Z,17.50
2022-12-12T06:30:54.750Z,19.80
2022-12-12T06:33:22.670Z,19.95
2022-12-12T06:36:00.504Z,17.50
2022-12-12T06:38:28.351Z,17.95
2022-12-12T06:40:56.150Z,19.33
2022-12-12T06:43:24.018Z,21.17
2022-12-12T06:45:52.131Z,17.02
2022-12-12T06:48:19.979Z,20.42
2022-12-12T06:50:47.786Z,18.92
2022-12-12T06:53:16.932Z,16.80
2022-12-12T06:55:45.369Z,14.95
2022-12-12T06:58:13.187Z,16.58
2022-12-12T07:00:41.414Z,16.17
2022-12-12T07:03:10.461Z,17.05
2022-12-12T07:05:38.271Z,17.30
2022-12-12T07:08:06.150Z,18.13
2022-12-12T07:10:36.828Z,15.65
2022-12-12T07:13:04.796Z,17.10
2022-12-12T07:15:32.671Z,16.38
2022-12-12T07:18:00.505Z,18.77
2022-12-12T07:20:28.383Z,18.38
2022-12-12T07:22:56.202Z,18.05
2022-12-12T07:25:24.007Z,16.25
2022-12-12T07:27:54.731Z,18.27
2022-12-12T07:30:22.585Z,17.02
2022-12-12T07:32:52.247Z,16.90
2022-12-12T07:35:20.051Z,20.08
2022-12-12T07:37:47.902Z,20.45
2022-12-12T07:40:15.880Z,16.35
2022-12-12T07:42:43.725Z,18.15
2022-12-12T07:45:18.050Z,18.20
2022-12-12T07:47:46.544Z,19.25
2022-12-12T07:50:14.464Z,17.40
2022-12-12T07:52:42.512Z,18.90
2022-12-12T07:55:11.416Z,20.52
2022-12-12T07:57:39.419Z,20.40
2022-12-12T08:00:08.800Z,20.85
2022-12-12T08:02:37.937Z,22.52
2022-12-12T08:05:06.483Z,23.60
2022-12-12T08:07:34.600Z,25.15
2022-12-12T08:10:02.725Z,20.63
2022-12-12T08:12:31.240Z,18.70
2022-12-12T08:14:59.166Z,19.55
2022-12-12T08:17:27.150Z,19.95
2022-12-12T08:19:56.318Z,19.13
2022-12-12T08:22:24.135Z,22.10
2022-12-12T08:24:51.952Z,16.15
2022-12-12T08:27:19.808Z,18.20
2022-12-12T08:29:47.614Z,17.73
2022-12-12T08:32:15.443Z,18.85
2022-12-12T08:34:43.236Z,21.70
2022-12-12T08:37:12.408Z,18.88
2022-12-12T08:39:40.255Z,18.10
2022-12-12T08:42:08.069Z,18.45
2022-12-12T08:44:35.886Z,17.20
2022-12-12T08:47:03.816Z,17.35
2022-12-12T08:49:32.011Z,17.02
2022-12-12T08:51:59.807Z,17.42
2022-12-12T08:54:29.726Z,22.13
2022-12-12T08:56:57.608Z,17.77
2022-12-12T08:59:25.433Z,21.42
2022-12-12T09:01:53.371Z,16.73
2022-12-12T09:04:21.240Z,17.50
2022-12-12T09:06:49.246Z,15.43
2022-12-12T09:09:17.088Z,15.13
2022-12-12T09:11:46.247Z,17.08
2022-12-12T09:14:14.116Z,15.60
2022-12-12T09:16:42.018Z,14.55
2022-12-12T09:19:09.870Z,15.48
2022-12-12T09:21:37.761Z,16.15
2022-12-12T09:24:05.894Z,16.77
2022-12-12T09:26:33.711Z,15.77
2022-12-12T09:29:02.865Z,14.90
2022-12-12T09:31:30.769Z,13.15
2022-12-12T09:33:58.664Z,16.60
2022-12-12T09:36:26.467Z,14.90
2022-12-12T09:38:54.279Z,13.82
2022-12-12T09:41:27.058Z,12.63
2022-12-12T09:43:59.094Z,14.20
2022-12-12T09:46:35.293Z,14.95
2022-12-12T09:49:13.021Z,14.57
2022-12-12T09:51:42.083Z,16.27
2022-12-12T09:54:15.152Z,13.20
2022-12-12T09:56:51.038Z,13.63
2022-12-12T09:59:24.284Z,13.38
2022-12-12T10:02:03.532Z,16.23
2022-12-12T10:04:39.156Z,16.40
2022-12-12T10:07:17.697Z,13.98
2022-12-12T10:10:02.393Z,15.73
2022-12-12T10:12:30.986Z,12.57
2022-12-12T10:15:01.957Z,14.77
2022-12-12T10:17:35.304Z,12.95
2022-12-12T10:20:06.598Z,11.65
2022-12-12T10:22:40.287Z,14.57
2022-12-12T10:25:21.159Z,16.27
2022-12-12T10:27:52.070Z,12.73
2022-12-12T10:30:21.797Z,13.35
2022-12-12T10:33:09.034Z,14.68
2022-12-12T10:35:44.305Z,19.40
2022-12-12T10:38:30.928Z,14.68
2022-12-12T10:41:04.212Z,26.58
2022-12-12T10:43:39.918Z,32.42
2022-12-12T10:46:17.707Z,12.27
2022-12-12T10:48:48.651Z,11.25
2022-12-12T10:51:18.640Z,11.93
2022-12-12T10:53:46.532Z,10.30
2022-12-12T10:56:20.948Z,10.00
2022-12-12T10:58:54.430Z,10.77
2022-12-12T11:01:52.446Z,12.45
2022-12-12T11:04:16.916Z,9.93
2022-12-12T11:06:47.870Z,9.52
2022-12-12T11:09:19.835Z,10.70
2022-12-12T11:11:59.066Z,13.00
2022-12-12T11:14:32.039Z,11.77
2022-12-12T11:16:59.852Z,10.35
2022-12-12T11:19:39.765Z,10.60
2022-12-12T11:22:07.697Z,8.23
2022-12-12T11:24:37.489Z,9.43
2022-12-12T11:27:08.272Z,7.13
2022-12-12T11:29:44.401Z,9.68
2022-12-12T11:32:17.255Z,11.23
2022-12-12T11:34:50.284Z,12.00
2022-12-12T11:37:20.287Z,11.15
2022-12-12T11:39:51.849Z,8.48
2022-12-12T11:42:22.936Z,9.43
2022-12-12T11:45:00.470Z,9.35
2022-12-12T11:47:30.284Z,12.18
2022-12-12T11:50:03.881Z,8.45
2022-12-12T11:52:35.564Z,10.45
2022-12-12T11:55:04.107Z,10.55
2022-12-12T11:57:56.599Z,8.77
2022-12-12T12:00:33.807Z,8.65
2022-12-12T12:03:30.187Z,10.77
2022-12-12T12:06:23.279Z,9.73
2022-12-12T12:09:09.895Z,8.80
2022-12-12T12:11:45.277Z,11.73
2022-12-12T12:14:28.859Z,9.27
2022-12-12T12:17:03.893Z,9.35
2022-12-12T12:19:41.251Z,10.65
2022-12-12T12:22:24.267Z,8.98
2022-12-12T12:25:19.075Z,10.20
2022-12-12T12:27:54.919Z,10.55
2022-12-12T12:30:24.457Z,9.45
2022-12-12T12:33:26.710Z,10.88
2022-12-12T12:36:05.892Z,9.20
2022-12-12T12:38:55.772Z,13.88
2022-12-12T12:41:40.291Z,10.55
2022-12-12T12:44:23.151Z,11.98
2022-12-12T12:46:59.566Z,11.85
2022-12-12T12:49:31.886Z,13.82
2022-12-12T12:54:34.069Z,12.05
2022-12-12T12:57:07.016Z,12.55
2022-12-12T12:59:38.575Z,13.05
2022-12-12T13:02:21.118Z,12.23
2022-12-12T13:04:57.988Z,14.05
2022-12-12T13:07:40.609Z,9.98
2022-12-12T13:10:18.740Z,10.57
2022-12-12T13:12:50.997Z,11.40
2022-12-12T13:15:23.390Z,12.40
2022-12-12T13:20:26.134Z,9.57
2022-12-12T13:23:14.066Z,11.75
2022-12-12T13:25:51.653Z,10.68
2022-12-12T13:28:24.678Z,12.38
2022-12-12T13:31:23.521Z,12.50
2022-12-12T13:33:54.429Z,15.13
2022-12-12T13:36:29.708Z,9.43
2022-12-12T13:39:00.986Z,9.75
2022-12-12T13:41:56.812Z,11.80
2022-12-12T13:44:36.639Z,12.27
2022-12-12T13:47:05.384Z,10.18
2022-12-12T13:49:49.733Z,10.18
2022-12-12T13:52:29.678Z,10.27
2022-12-12T13:55:20.957Z,14.23
2022-12-12T13:58:10.222Z,11.60
2022-12-12T14:00:39.000Z,10.73
2022-12-12T14:03:25.698Z,11.45
2022-12-12T14:05:54.375Z,10.77
2022-12-12T14:08:28.895Z,12.43
2022-12-12T14:11:02.403Z,11.63
2022-12-12T14:13:40.131Z,11.35
2022-12-12T14:16:19.262Z,11.55
2022-12-12T14:19:08.703Z,16.73
2022-12-12T14:21:54.348Z,16.63
2022-12-12T14:24:48.106Z,13.27
2022-12-12T14:27:16.433Z,11.60
2022-12-12T14:29:46.575Z,14.68
2022-12-12T14:32:39.304Z,11.93
2022-12-12T14:35:22.008Z,16.88
2022-12-12T14:37:58.938Z,13.07
2022-12-12T14:40:30.482Z,14.43
2022-12-12T14:43:19.288Z,12.80
2022-12-12T14:45:58.706Z,14.20
2022-12-12T14:48:28.795Z,14.90
2022-12-12T14:51:04.779Z,14.05
2022-12-12T14:53:40.223Z,13.25
2022-12-12T14:56:10.774Z,15.00
2022-12-12T14:58:41.044Z,16.02
2022-12-12T15:01:10.632Z,14.05
2022-12-12T15:03:42.570Z,12.10
2022-12-12T15:06:31.920Z,14.90
2022-12-12T15:09:16.089Z,17.58
2022-12-12T15:11:44.523Z,17.10
2022-12-12T15:14:21.923Z,14.65
2022-12-12T15:16:55.641Z,14.45
2022-12-12T15:19:27.398Z,16.73
2022-12-12T15:21:55.505Z,15.30
2022-12-12T15:24:25.686Z,12.48
2022-12-12T15:26:56.792Z,14.43
2022-12-12T15:29:28.369Z,15.07
2022-12-12T15:32:05.014Z,16.70
2022-12-12T15:34:40.116Z,14.40
2022-12-12T15:37:24.572Z,11.95
2022-12-12T15:40:01.872Z,16.20
2022-12-12T15:42:30.183Z,17.65
2022-12-12T15:44:58.495Z,19.48
2022-12-12T15:47:27.706Z,15.77
2022-12-12T15:49:55.706Z,17.38
2022-12-12T15:52:27.547Z,17.58
2022-12-12T15:54:58.068Z,14.93
2022-12-12T15:57:28.046Z,14.35
2022-12-12T15:59:58.867Z,15.32
2022-12-12T16:02:30.092Z,15.35
2022-12-12T16:05:04.730Z,11.83
2022-12-12T16:07:37.446Z,12.85
2022-12-12T16:10:21.705Z,15.13
2022-12-12T16:13:00.737Z,15.77
2022-12-12T16:15:35.407Z,19.30
2022-12-12T16:18:08.363Z,20.75
2022-12-12T16:20:36.491Z,18.00
2022-12-12T16:23:22.889Z,19.05
2022-12-12T16:25:51.440Z,20.45
2022-12-12T16:28:25.312Z,19.60
2022-12-12T16:30:56.393Z,20.58
2022-12-12T16:33:33.042Z,23.13
2022-12-12T16:36:03.280Z,21.27
2022-12-12T16:38:32.168Z,24.08
2022-12-12T16:41:02.385Z,22.92
2022-12-12T16:43:30.462Z,23.77
2022-12-12T16:45:59.399Z,30.48
2022-12-12T16:48:33.859Z,29.90
2022-12-12T16:51:04.459Z,19.38
2022-12-12T16:53:32.560Z,23.92
2022-12-12T16:56:00.425Z,29.45
2022-12-12T16:58:28.435Z,35.65
2022-12-12T17:00:58.178Z,32.65
2022-12-12T17:03:26.070Z,25.75
2022-12-12T17:05:55.294Z,23.30
2022-12-12T17:08:23.492Z,22.23
2022-12-12T17:10:53.133Z,21.60
2022-12-12T17:13:40.265Z,22.35
2022-12-12T17:16:08.528Z,26.90
2022-12-12T17:18:36.420Z,27.45
2022-12-12T17:21:06.003Z,21.63
2022-12-12T17:23:33.876Z,24.65
2022-12-12T17:26:04.786Z,24.50
2022-12-12T17:28:34.594Z,23.50
2022-12-12T17:31:03.239Z,22.60
2022-12-12T17:33:31.212Z,22.02
2022-12-12T17:36:01.093Z,17.70
2022-12-12T17:38:31.373Z,17.70
2022-12-12T17:40:59.699Z,18.20
2022-12-12T17:43:27.544Z,17.05
2022-12-12T17:46:00.021Z,19.88
2022-12-12T17:48:30.245Z,21.20
2022-12-12T17:51:00.067Z,24.55
2022-12-12T17:53:32.065Z,21.42
2022-12-12T17:56:07.731Z,26.60
2022-12-12T17:58:37.590Z,20.55
2022-12-12T18:01:11.308Z,22.05
2022-12-12T18:03:39.311Z,19.00
2022-12-12T18:06:08.295Z,20.60
2022-12-12T18:08:36.339Z,14.98
2022-12-12T18:11:09.204Z,15.82
2022-12-12T18:13:38.557Z,17.25
2022-12-12T18:16:07.738Z,18.42
2022-12-12T18:18:36.209Z,19.58
2022-12-12T18:21:05.743Z,23.83
2022-12-12T18:23:33.647Z,19.73
2022-12-12T18:26:04.769Z,16.13
2022-12-12T18:28:33.986Z,16.02
2022-12-12T18:31:02.341Z,15.40
2022-12-12T18:33:30.199Z,17.10
2022-12-12T18:36:03.227Z,18.45
2022-12-12T18:38:31.509Z,20.60
2022-12-12T18:40:59.558Z,18.58
2022-12-12T18:43:27.990Z,17.70
2022-12-12T18:46:01.554Z,14.75
2022-12-12T18:48:29.607Z,14.95
2022-12-12T18:51:05.040Z,15.93
2022-12-12T18:53:33.007Z,16.15
2022-12-12T18:56:00.875Z,16.23
2022-12-12T18:58:28.688Z,15.50
2022-12-12T19:01:04.209Z,15.00
2022-12-12T19:03:36.839Z,16.23
2022-12-12T19:06:06.339Z,17.77
2022-12-12T19:08:34.273Z,19.05
2022-12-12T19:11:02.161Z,16.27
2022-12-12T19:13:30.427Z,17.92
2022-12-12T19:16:06.401Z,19.67
2022-12-12T19:18:34.242Z,19.95
2022-12-12T19:21:05.424Z,16.42
2022-12-12T19:23:33.229Z,18.83
2022-12-12T19:26:05.701Z,17.92
2022-12-12T19:28:34.916Z,21.13
2022-12-12T19:31:09.235Z,18.63
2022-12-12T19:33:37.209Z,20.25
2022-12-12T19:36:10.722Z,18.27
2022-12-12T19:38:38.543Z,20.27
2022-12-12T19:41:07.051Z,18.73
2022-12-12T19:43:35.520Z,23.02
2022-12-12T19:46:08.024Z,20.65
2022-12-12T19:48:39.254Z,19.67
2022-12-12T19:51:09.336Z,28.33
2022-12-12T19:53:38.678Z,30.42
2022-12-12T19:56:07.543Z,28.13
2022-12-12T19:58:38.660Z,19.70
2022-12-12T20:01:09.985Z,24.60
2022-12-12T20:03:38.120Z,19.35
2022-12-12T20:06:08.723Z,21.48
2022-12-12T20:08:38.119Z,22.48
2022-12-12T20:11:07.157Z,24.20
2022-12-12T20:13:35.317Z,20.80
2022-12-12T20:16:08.842Z,17.67
2022-12-12T20:18:37.318Z,20.02
2022-12-12T20:21:06.440Z,18.30
2022-12-12T20:23:42.457Z,21.73
2022-12-12T20:26:16.417Z,24.67
2022-12-12T20:28:47.883Z,24.55
2022-12-12T20:31:19.324Z,24.15
2022-12-12T20:33:48.024Z,15.73
2022-12-12T20:36:17.763Z,18.33
2022-12-12T20:38:46.241Z,20.38
2022-12-12T20:41:16.220Z,19.67
2022-12-12T20:43:44.899Z,18.48
2022-12-12T20:46:18.021Z,19.95
2022-12-12T20:48:48.631Z,19.50
2022-12-12T20:51:53.331Z,17.98
2022-12-12T20:54:11.985Z,20.38
2022-12-12T20:56:44.604Z,20.02
2022-12-12T20:59:14.327Z,18.85
2022-12-12T21:01:43.844Z,19.77
2022-12-12T21:04:11.812Z,22.88
2022-12-12T21:06:43.106Z,19.77
2022-12-12T21:09:13.021Z,13.38
2022-12-12T21:11:42.890Z,20.88
2022-12-12T21:14:11.046Z,26.13
2022-12-12T21:17:05.486Z,19.67
2022-12-12T21:19:33.316Z,18.60
2022-12-12T21:22:01.138Z,17.98
2022-12-12T21:24:28.952Z,19.02
2022-12-12T21:26:56.800Z,21.50
2022-12-12T21:29:24.622Z,21.85
2022-12-12T21:31:52.875Z,17.85
2022-12-12T21:34:23.878Z,19.30
2022-12-12T21:36:53.411Z,20.02
2022-12-12T21:39:22.871Z,20.73
2022-12-12T21:41:51.315Z,21.30
2022-12-12T21:44:19.595Z,16.90
2022-12-12T21:46:47.504Z,16.02
2022-12-12T21:49:26.552Z,18.25
2022-12-12T21:51:57.462Z,18.95
2022-12-12T21:54:26.376Z,18.27
2022-12-12T21:56:54.215Z,16.85
2022-12-12T21:59:22.093Z,18.77
2022-12-12T22:01:50.209Z,15.73
2022-12-12T22:04:18.057Z,14.65
2022-12-12T22:06:47.036Z,16.00
2022-12-12T22:09:16.246Z,19.08
2022-12-12T22:11:50.518Z,19.15
2022-12-12T22:14:20.898Z,18.90
2022-12-12T22:16:49.479Z,16.90
2022-12-12T22:19:18.296Z,16.73
2022-12-12T22:21:47.798Z,18.40
2022-12-12T22:24:18.204Z,16.40
2022-12-12T22:26:47.847Z,16.50
2022-12-12T22:29:17.679Z,19.17
2022-12-12T22:31:46.557Z,17.20
2022-12-12T22:34:16.523Z,19.38
2022-12-12T22:36:45.959Z,20.60
2022-12-12T22:39:17.594Z,18.30
2022-12-12T22:41:46.093Z,16.88
2022-12-12T22:44:16.692Z,19.80
2022-12-12T22:46:45.724Z,22.17
2022-12-12T22:49:16.031Z,19.73
2022-12-12T22:51:45.148Z,21.73
2022-12-12T22:54:13.795Z,20.10
2022-12-12T22:56:43.492Z,21.48
2022-12-12T22:59:13.540Z,22.65
2022-12-12T23:01:41.858Z,19.25
2022-12-12T23:04:11.456Z,13.80
2022-12-12T23:06:39.685Z,17.98
2022-12-12T23:09:09.473Z,15.80
2022-12-12T23:11:37.549Z,17.52
2022-12-12T23:14:09.380Z,16.58
2022-12-12T23:16:37.509Z,18.80
2022-12-12T23:19:07.805Z,16.92
2022-12-12T23:21:37.092Z,21.00
2022-12-12T23:24:06.755Z,15.85
2022-12-12T23:26:36.671Z,16.92
2022-12-12T23:29:09.031Z,15.20
2022-12-12T23:31:38.358Z,15.25
2022-12-12T23:34:08.370Z,17.15
2022-12-12T23:36:36.435Z,18.02
2022-12-12T23:39:07.533Z,17.52
2022-12-12T23:41:36.546Z,12.30
2022-12-12T23:44:04.752Z,17.40
2022-12-12T23:46:35.970Z,16.23
2022-12-12T23:49:06.018Z,13.52
2022-12-12T23:51:35.908Z,15.07
2022-12-12T23:54:05.703Z,19.52
2022-12-12T23:56:33.906Z,18.70
2022-12-12T23:59:01.754Z,16.20
